地図

経路データ

SID SEASON NUMBER BASIN SUBBASIN NAME ISO_TIME NATURE LAT LON WMO_WIND WMO_PRES WMO_AGENCY TRACK_TYPE DIST2LAND LANDFALL IFLAG USA_AGENCY USA_ATCF_ID USA_LAT USA_LON USA_RECORD USA_STATUS USA_WIND USA_PRES USA_SSHS USA_R34_NE USA_R34_SE USA_R34_SW USA_R34_NW USA_R50_NE USA_R50_SE USA_R50_SW USA_R50_NW USA_R64_NE USA_R64_SE USA_R64_SW USA_R64_NW USA_POCI USA_ROCI USA_RMW USA_EYE TOKYO_LAT TOKYO_LON TOKYO_GRADE TOKYO_WIND TOKYO_PRES TOKYO_R50_DIR TOKYO_R50_LONG TOKYO_R50_SHORT TOKYO_R30_DIR TOKYO_R30_LONG TOKYO_R30_SHORT TOKYO_LAND CMA_LAT CMA_LON CMA_CAT CMA_WIND CMA_PRES HKO_LAT HKO_LON HKO_CAT HKO_WIND HKO_PRES NEWDELHI_LAT NEWDELHI_LON NEWDELHI_GRADE NEWDELHI_WIND NEWDELHI_PRES NEWDELHI_CI NEWDELHI_DP NEWDELHI_POCI REUNION_LAT REUNION_LON REUNION_TYPE REUNION_WIND REUNION_PRES REUNION_TNUM REUNION_CI REUNION_RMW REUNION_R34_NE REUNION_R34_SE REUNION_R34_SW REUNION_R34_NW REUNION_R50_NE REUNION_R50_SE REUNION_R50_SW REUNION_R50_NW REUNION_R64_NE REUNION_R64_SE REUNION_R64_SW REUNION_R64_NW BOM_LAT BOM_LON BOM_TYPE BOM_WIND BOM_PRES BOM_TNUM BOM_CI BOM_RMW BOM_R34_NE BOM_R34_SE BOM_R34_SW BOM_R34_NW BOM_R50_NE BOM_R50_SE BOM_R50_SW BOM_R50_NW BOM_R64_NE BOM_R64_SE BOM_R64_SW BOM_R64_NW BOM_ROCI BOM_POCI BOM_EYE BOM_POS_METHOD BOM_PRES_METHOD NADI_LAT NADI_LON NADI_CAT NADI_WIND NADI_PRES WELLINGTON_LAT WELLINGTON_LON WELLINGTON_WIND WELLINGTON_PRES DS824_LAT DS824_LON DS824_STAGE DS824_WIND DS824_PRES TD9636_LAT TD9636_LON TD9636_STAGE TD9636_WIND TD9636_PRES TD9635_LAT TD9635_LON TD9635_WIND TD9635_PRES TD9635_ROCI NEUMANN_LAT NEUMANN_LON NEUMANN_CLASS NEUMANN_WIND NEUMANN_PRES MLC_LAT MLC_LON MLC_CLASS MLC_WIND MLC_PRES USA_GUST BOM_GUST BOM_GUST_PER REUNION_GUST REUNION_GUST_PER USA_SEAHGT USA_SEARAD_NE USA_SEARAD_SE USA_SEARAD_SW USA_SEARAD_NW STORM_SPEED STORM_DIR
1871182S04095 1872 13 SI WA NOT_NAMED 1871-07-01 06:00:00 NR -4.20000 94.8000 main 534 534 __________O___ -1 -4.20000 94.8000 7 9 224
1871182S04095 1872 13 SI WA NOT_NAMED 1871-07-01 09:00:00 NR -4.50478 94.5016 main 581 581 __________P___ -1 -4.50478 94.5016 7 9 224
1871182S04095 1872 13 SI WA NOT_NAMED 1871-07-01 12:00:00 NR -4.81761 94.2025 main 627 627 __________P___ -1 -4.81761 94.2025 7 9 223
1871182S04095 1872 13 SI WA NOT_NAMED 1871-07-01 15:00:00 NR -5.14662 93.9022 main 673 673 __________P___ -1 -5.14662 93.9022 7 9 221
1871182S04095 1872 13 SI WA NOT_NAMED 1871-07-01 18:00:00 NR -5.50000 93.6000 main 726 726 __________O___ -1 -5.50000 93.6000 7 10 219
1871182S04095 1872 13 SI WA NOT_NAMED 1871-07-01 21:00:00 NR -5.88093 93.2976 main 779 779 __________P___ -1 -5.88093 93.2976 7 10 217
1871182S04095 1872 13 SI WA NOT_NAMED 1871-07-02 00:00:00 NR -6.27251 93.0052 main 833 833 __________P___ -1 -6.27251 93.0052 7 10 216
1871182S04095 1872 13 SI WA NOT_NAMED 1871-07-02 03:00:00 NR -6.65283 92.7351 main 887 887 __________P___ -1 -6.65283 92.7351 7 9 215
1871182S04095 1872 13 SI WA NOT_NAMED 1871-07-02 06:00:00 NR -7.00000 92.5000 main 925 925 __________O___ -1 -7.00000 92.5000 7 7 213
1871182S04095 1872 13 SI WA NOT_NAMED 1871-07-02 09:00:00 NR -7.27362 92.3219 main 964 964 __________P___ -1 -7.27362 92.3219 7 6 212
1871182S04095 1872 13 SI WA NOT_NAMED 1871-07-02 12:00:00 NR -7.51483 92.1771 main 987 987 __________P___ -1 -7.51483 92.1771 7 6 210
1871182S04095 1872 13 SI WA NOT_NAMED 1871-07-02 15:00:00 NR -7.74864 92.0438 main 1018 1018 __________P___ -1 -7.74864 92.0438 7 6 209
1871182S04095 1872 13 SI WA NOT_NAMED 1871-07-02 18:00:00 NR -8.00000 91.9000 main 1049 1049 __________O___ -1 -8.00000 91.9000 7 6 214
1871182S04095 1872 13 SI WA NOT_NAMED 1871-07-02 21:00:00 NR -8.26698 91.6941 main 1087 1087 __________P___ -1 -8.26698 91.6941 7 7 217
1871182S04095 1872 13 SI WA NOT_NAMED 1871-07-03 00:00:00 NR -8.56016 91.4775 main 1126 1126 __________P___ -1 -8.56016 91.4775 7 8 213
1871182S04095 1872 13 SI WA NOT_NAMED 1871-07-03 03:00:00 NR -8.89824 91.2722 main 1165 1165 __________P___ -1 -8.89824 91.2722 7 8 207
1871182S04095 1872 13 SI WA NOT_NAMED 1871-07-03 06:00:00 NR -9.30000 91.1000 main 1212 1212 __________O___ -1 -9.30000 91.1000 7 10 198
1871182S04095 1872 13 SI WA NOT_NAMED 1871-07-03 09:00:00 NR -9.81774 90.9608 main 1260 1260 __________P___ -1 -9.81774 90.9608 7 11 192
1871182S04095 1872 13 SI WA NOT_NAMED 1871-07-03 12:00:00 NR -10.3924 90.8603 main 1316 1316 __________P___ -1 -10.3924 90.8603 7 12 188
1871182S04095 1872 13 SI WA NOT_NAMED 1871-07-03 15:00:00 NR -10.9709 90.8046 main 1373 1373 __________P___ -1 -10.9709 90.8046 7 11 183
1871182S04095 1872 13 SI WA NOT_NAMED 1871-07-03 18:00:00 NR -11.5000 90.8000 main 1416 1416 __________O___ -1 -11.5000 90.8000 7 9 179
1871182S04095 1872 13 SI WA NOT_NAMED 1871-07-03 21:00:00 NR -11.8952 90.8294 main 1450 1450 __________P___ -1 -11.8952 90.8294 7 8 172
1871182S04095 1872 13 SI WA NOT_NAMED 1871-07-04 00:00:00 NR -12.2373 90.9101 main 1470 1470 __________P___ -1 -12.2373 90.9101 7 7 163
1871182S04095 1872 13 SI WA NOT_NAMED 1871-07-04 03:00:00 NR -12.5608 91.0358 main 1499 1493 __________P___ -1 -12.5608 91.0358 7 7 157
1871182S04095 1872 13 SI WA NOT_NAMED 1871-07-04 06:00:00 NR -12.9000 91.2000 main 1514 1514 __________O___ -1 -12.9000 91.2000 7 8 156
1871182S04095 1872 13 SI WA NOT_NAMED 1871-07-04 09:00:00 NR -13.3197 91.3888 main 1539 1539 __________P___ -1 -13.3197 91.3888 7 10 155
1871182S04095 1872 13 SI WA NOT_NAMED 1871-07-04 12:00:00 NR -13.7576 91.6122 main 1575 1570 __________P___ -1 -13.7576 91.6122 7 10 153
1871182S04095 1872 13 SI WA NOT_NAMED 1871-07-04 15:00:00 NR -14.1916 91.8545 main 1598 1598 __________P___ -1 -14.1916 91.8545 7 10 151
1871182S04095 1872 13 SI WA NOT_NAMED 1871-07-04 18:00:00 NR -14.6000 92.1000 main 1626 1626 __________O___ -1 -14.6000 92.1000 7 9 149
1871182S04095 1872 13 SI WA NOT_NAMED 1871-07-04 21:00:00 NR -14.9666 92.3359 main 1648 1641 __________P___ -1 -14.9666 92.3359 7 8 147
1871182S04095 1872 13 SI WA NOT_NAMED 1871-07-05 00:00:00 NR -15.2975 92.5623 main 1652 1652 __________P___ -1 -15.2975 92.5623 7 8 146
1871182S04095 1872 13 SI WA NOT_NAMED 1871-07-05 03:00:00 NR -15.6048 92.7826 main 1663 1663 __________P___ -1 -15.6048 92.7826 7 7 145
1871182S04095 1872 13 SI WA NOT_NAMED 1871-07-05 06:00:00 NR -15.9000 93.0000 main 1673 __________O___ -1 -15.9000 93.0000 7 7 145

IBTrACS Databaseについて

本データベースは、米国NOAAが公開する1842年以降の世界の熱帯低気圧のベストトラックデータアーカイブInternational Best Track Archive for Climate Stewardship (IBTrACS)を、ウェブで閲覧しやすい形式に変換したものです。

最終更新日:2021-10-08